sensor_id;sensor_type;location;lat;lon;timestamp;temperature;humidity
6662;DHT22;3367;48.714;8.994;2022-10-23T00:01:36;9.60;1.00
6662;DHT22;3367;48.714;8.994;2022-10-23T00:04:06;9.50;1.00
6662;DHT22;3367;48.714;8.994;2022-10-23T00:06:33;9.50;1.00
6662;DHT22;3367;48.714;8.994;2022-10-23T00:09:00;9.40;1.00
6662;DHT22;3367;48.714;8.994;2022-10-23T00:11:28;9.30;1.00
6662;DHT22;3367;48.714;8.994;2022-10-23T00:13:57;9.20;1.00
6662;DHT22;3367;48.714;8.994;2022-10-23T00:16:24;9.30;1.00
6662;DHT22;3367;48.714;8.994;2022-10-23T00:18:52;9.20;1.00
6662;DHT22;3367;48.714;8.994;2022-10-23T00:21:20;9.20;1.00
6662;DHT22;3367;48.714;8.994;2022-10-23T00:23:46;9.20;1.00
6662;DHT22;3367;48.714;8.994;2022-10-23T00:26:13;9.20;1.00
6662;DHT22;3367;48.714;8.994;2022-10-23T00:28:40;9.20;1.00
6662;DHT22;3367;48.714;8.994;2022-10-23T00:31:07;9.20;1.00
6662;DHT22;3367;48.714;8.994;2022-10-23T00:33:34;9.10;1.00
6662;DHT22;3367;48.714;8.994;2022-10-23T00:36:05;9.10;1.00
6662;DHT22;3367;48.714;8.994;2022-10-23T00:38:32;9.00;1.00
6662;DHT22;3367;48.714;8.994;2022-10-23T00:40:59;9.00;1.00
6662;DHT22;3367;48.714;8.994;2022-10-23T00:43:28;8.90;1.00
6662;DHT22;3367;48.714;8.994;2022-10-23T00:45:55;8.90;1.00
6662;DHT22;3367;48.714;8.994;2022-10-23T00:48:23;8.90;1.00
6662;DHT22;3367;48.714;8.994;2022-10-23T00:50:51;8.90;1.00
6662;DHT22;3367;48.714;8.994;2022-10-23T00:53:19;8.90;1.00
6662;DHT22;3367;48.714;8.994;2022-10-23T00:55:48;8.90;1.00
6662;DHT22;3367;48.714;8.994;2022-10-23T00:58:18;9.00;1.00
6662;DHT22;3367;48.714;8.994;2022-10-23T01:00:47;9.00;1.00
6662;DHT22;3367;48.714;8.994;2022-10-23T01:03:15;9.00;1.00
6662;DHT22;3367;48.714;8.994;2022-10-23T01:05:47;9.00;1.00
6662;DHT22;3367;48.714;8.994;2022-10-23T01:08:22;9.00;1.00
6662;DHT22;3367;48.714;8.994;2022-10-23T01:10:54;8.90;1.00
6662;DHT22;3367;48.714;8.994;2022-10-23T01:13:27;8.90;1.00
6662;DHT22;3367;48.714;8.994;2022-10-23T01:16:04;8.90;1.00
6662;DHT22;3367;48.714;8.994;2022-10-23T01:18:36;8.90;1.00
6662;DHT22;3367;48.714;8.994;2022-10-23T01:21:08;8.80;1.00
6662;DHT22;3367;48.714;8.994;2022-10-23T01:23:59;8.90;1.00
6662;DHT22;3367;48.714;8.994;2022-10-23T01:26:38;8.90;1.00
6662;DHT22;3367;48.714;8.994;2022-10-23T01:29:12;8.90;1.00
6662;DHT22;3367;48.714;8.994;2022-10-23T01:31:44;8.90;1.00
6662;DHT22;3367;48.714;8.994;2022-10-23T01:34:17;8.90;1.00
6662;DHT22;3367;48.714;8.994;2022-10-23T01:36:47;8.90;1.00
6662;DHT22;3367;48.714;8.994;2022-10-23T01:39:18;8.90;1.00
6662;DHT22;3367;48.714;8.994;2022-10-23T01:41:49;8.90;1.00
6662;DHT22;3367;48.714;8.994;2022-10-23T01:44:24;8.80;1.00
6662;DHT22;3367;48.714;8.994;2022-10-23T01:46:54;8.90;1.00
6662;DHT22;3367;48.714;8.994;2022-10-23T01:49:23;8.90;1.00
6662;DHT22;3367;48.714;8.994;2022-10-23T01:51:53;8.80;1.00
6662;DHT22;3367;48.714;8.994;2022-10-23T01:54:23;8.80;1.00
6662;DHT22;3367;48.714;8.994;2022-10-23T01:56:51;8.90;1.00
6662;DHT22;3367;48.714;8.994;2022-10-23T01:59:21;8.90;1.00
6662;DHT22;3367;48.714;8.994;2022-10-23T02:01:52;8.90;1.00
6662;DHT22;3367;48.714;8.994;2022-10-23T02:04:24;8.80;1.00
6662;DHT22;3367;48.714;8.994;2022-10-23T02:06:52;8.70;1.00
6662;DHT22;3367;48.714;8.994;2022-10-23T02:09:19;8.70;1.00
6662;DHT22;3367;48.714;8.994;2022-10-23T02:11:51;8.70;1.00
6662;DHT22;3367;48.714;8.994;2022-10-23T02:14:28;8.60;1.00
6662;DHT22;3367;48.714;8.994;2022-10-23T02:17:07;8.60;1.00
6662;DHT22;3367;48.714;8.994;2022-10-23T02:19:43;8.60;1.00
6662;DHT22;3367;48.714;8.994;2022-10-23T02:22:17;8.60;1.00
6662;DHT22;3367;48.714;8.994;2022-10-23T02:24:49;8.60;1.00
6662;DHT22;3367;48.714;8.994;2022-10-23T02:27:20;8.70;1.00
6662;DHT22;3367;48.714;8.994;2022-10-23T02:29:52;8.70;1.00
6662;DHT22;3367;48.714;8.994;2022-10-23T02:32:22;8.70;1.00
6662;DHT22;3367;48.714;8.994;2022-10-23T02:34:50;8.70;1.00
6662;DHT22;3367;48.714;8.994;2022-10-23T02:37:16;8.80;1.00
6662;DHT22;3367;48.714;8.994;2022-10-23T02:39:43;8.80;1.00
6662;DHT22;3367;48.714;8.994;2022-10-23T02:42:13;8.80;1.00
6662;DHT22;3367;48.714;8.994;2022-10-23T02:44:47;8.80;1.00
6662;DHT22;3367;48.714;8.994;2022-10-23T02:47:31;8.80;1.00
6662;DHT22;3367;48.714;8.994;2022-10-23T02:50:06;8.80;1.00
6662;DHT22;3367;48.714;8.994;2022-10-23T02:52:42;8.80;1.00
6662;DHT22;3367;48.714;8.994;2022-10-23T02:55:16;8.80;1.00
6662;DHT22;3367;48.714;8.994;2022-10-23T02:57:51;8.70;1.00
6662;DHT22;3367;48.714;8.994;2022-10-23T03:00:20;8.60;1.00
6662;DHT22;3367;48.714;8.994;2022-10-23T03:02:54;8.80;1.00
6662;DHT22;3367;48.714;8.994;2022-10-23T03:05:23;8.80;1.00
6662;DHT22;3367;48.714;8.994;2022-10-23T03:07:51;8.80;1.00
6662;DHT22;3367;48.714;8.994;2022-10-23T03:10:18;8.80;1.00
6662;DHT22;3367;48.714;8.994;2022-10-23T03:12:45;8.80;1.00
6662;DHT22;3367;48.714;8.994;2022-10-23T03:15:13;8.70;1.00
6662;DHT22;3367;48.714;8.994;2022-10-23T03:17:40;8.80;1.00
6662;DHT22;3367;48.714;8.994;2022-10-23T03:20:10;8.70;99.90
6662;DHT22;3367;48.714;8.994;2022-10-23T03:22:37;8.70;99.90
6662;DHT22;3367;48.714;8.994;2022-10-23T03:25:05;8.70;99.90
6662;DHT22;3367;48.714;8.994;2022-10-23T03:27:33;8.60;99.90
6662;DHT22;3367;48.714;8.994;2022-10-23T03:29:59;8.60;99.90
6662;DHT22;3367;48.714;8.994;2022-10-23T03:32:26;8.60;1.00
6662;DHT22;3367;48.714;8.994;2022-10-23T03:34:53;8.60;1.00
6662;DHT22;3367;48.714;8.994;2022-10-23T03:37:21;8.70;1.00
6662;DHT22;3367;48.714;8.994;2022-10-23T03:39:48;8.80;1.00
6662;DHT22;3367;48.714;8.994;2022-10-23T03:42:15;8.80;1.00
6662;DHT22;3367;48.714;8.994;2022-10-23T03:44:42;8.80;1.00
6662;DHT22;3367;48.714;8.994;2022-10-23T03:47:09;8.80;1.00
6662;DHT22;3367;48.714;8.994;2022-10-23T03:49:36;8.80;1.00
6662;DHT22;3367;48.714;8.994;2022-10-23T03:52:03;8.90;1.00
6662;DHT22;3367;48.714;8.994;2022-10-23T03:54:32;8.90;1.00
6662;DHT22;3367;48.714;8.994;2022-10-23T03:56:59;8.90;1.00
6662;DHT22;3367;48.714;8.994;2022-10-23T03:59:27;8.90;1.00
6662;DHT22;3367;48.714;8.994;2022-10-23T04:01:53;9.00;1.00
6662;DHT22;3367;48.714;8.994;2022-10-23T04:04:20;9.00;1.00
6662;DHT22;3367;48.714;8.994;2022-10-23T04:06:47;9.10;1.00
6662;DHT22;3367;48.714;8.994;2022-10-23T04:09:14;9.00;1.00
6662;DHT22;3367;48.714;8.994;2022-10-23T04:11:42;9.00;1.00
6662;DHT22;3367;48.714;8.994;2022-10-23T04:14:10;9.00;1.00
6662;DHT22;3367;48.714;8.994;2022-10-23T04:16:37;8.90;1.00
6662;DHT22;3367;48.714;8.994;2022-10-23T04:19:04;9.00;1.00
6662;DHT22;3367;48.714;8.994;2022-10-23T04:21:31;8.90;1.00
6662;DHT22;3367;48.714;8.994;2022-10-23T04:23:57;8.90;1.00
6662;DHT22;3367;48.714;8.994;2022-10-23T04:26:24;8.90;1.00
6662;DHT22;3367;48.714;8.994;2022-10-23T04:28:52;9.00;1.00
6662;DHT22;3367;48.714;8.994;2022-10-23T04:31:19;9.10;1.00
6662;DHT22;3367;48.714;8.994;2022-10-23T04:33:46;9.20;1.00
6662;DHT22;3367;48.714;8.994;2022-10-23T04:36:12;9.20;1.00
6662;DHT22;3367;48.714;8.994;2022-10-23T04:38:39;9.30;1.00
6662;DHT22;3367;48.714;8.994;2022-10-23T04:41:06;9.40;1.00
6662;DHT22;3367;48.714;8.994;2022-10-23T04:43:32;9.40;1.00
6662;DHT22;3367;48.714;8.994;2022-10-23T04:46:00;9.50;1.00
6662;DHT22;3367;48.714;8.994;2022-10-23T04:48:27;9.50;1.00
6662;DHT22;3367;48.714;8.994;2022-10-23T04:50:55;9.50;1.00
6662;DHT22;3367;48.714;8.994;2022-10-23T04:53:23;9.50;1.00
6662;DHT22;3367;48.714;8.994;2022-10-23T04:55:50;9.50;1.00
6662;DHT22;3367;48.714;8.994;2022-10-23T04:58:17;9.50;1.00
6662;DHT22;3367;48.714;8.994;2022-10-23T05:00:44;9.50;1.00
6662;DHT22;3367;48.714;8.994;2022-10-23T05:03:13;9.50;1.00
6662;DHT22;3367;48.714;8.994;2022-10-23T05:05:40;9.50;1.00
6662;DHT22;3367;48.714;8.994;2022-10-23T05:08:08;9.50;1.00
6662;DHT22;3367;48.714;8.994;2022-10-23T05:10:35;9.50;1.00
6662;DHT22;3367;48.714;8.994;2022-10-23T05:13:02;9.50;1.00
6662;DHT22;3367;48.714;8.994;2022-10-23T05:15:29;9.50;99.90
6662;DHT22;3367;48.714;8.994;2022-10-23T05:18:00;9.50;1.00
6662;DHT22;3367;48.714;8.994;2022-10-23T05:20:33;9.50;99.90
6662;DHT22;3367;48.714;8.994;2022-10-23T05:23:01;9.50;99.90
6662;DHT22;3367;48.714;8.994;2022-10-23T05:25:31;9.50;99.90
6662;DHT22;3367;48.714;8.994;2022-10-23T05:27:58;9.40;99.90
6662;DHT22;3367;48.714;8.994;2022-10-23T05:30:25;9.50;99.90
6662;DHT22;3367;48.714;8.994;2022-10-23T05:32:52;9.50;1.00
6662;DHT22;3367;48.714;8.994;2022-10-23T05:35:21;9.50;99.90
6662;DHT22;3367;48.714;8.994;2022-10-23T05:37:51;9.50;99.90
6662;DHT22;3367;48.714;8.994;2022-10-23T05:40:19;9.50;1.00
6662;DHT22;3367;48.714;8.994;2022-10-23T05:42:45;9.50;99.90
6662;DHT22;3367;48.714;8.994;2022-10-23T05:45:12;9.40;99.90
6662;DHT22;3367;48.714;8.994;2022-10-23T05:47:39;9.50;99.90
6662;DHT22;3367;48.714;8.994;2022-10-23T05:50:06;9.40;1.00
6662;DHT22;3367;48.714;8.994;2022-10-23T05:52:33;9.40;1.00
6662;DHT22;3367;48.714;8.994;2022-10-23T05:55:01;9.40;1.00
6662;DHT22;3367;48.714;8.994;2022-10-23T05:57:31;9.40;1.00
6662;DHT22;3367;48.714;8.994;2022-10-23T05:59:58;9.40;1.00
6662;DHT22;3367;48.714;8.994;2022-10-23T06:02:25;9.50;1.00
6662;DHT22;3367;48.714;8.994;2022-10-23T06:04:51;9.50;1.00
6662;DHT22;3367;48.714;8.994;2022-10-23T06:07:22;9.50;1.00
6662;DHT22;3367;48.714;8.994;2022-10-23T06:09:49;9.50;1.00
6662;DHT22;3367;48.714;8.994;2022-10-23T06:12:18;9.50;1.00
6662;DHT22;3367;48.714;8.994;2022-10-23T06:14:45;9.50;1.00
6662;DHT22;3367;48.714;8.994;2022-10-23T06:17:12;9.50;1.00
6662;DHT22;3367;48.714;8.994;2022-10-23T06:19:39;9.50;1.00
6662;DHT22;3367;48.714;8.994;2022-10-23T06:22:06;9.50;1.00
6662;DHT22;3367;48.714;8.994;2022-10-23T06:24:33;9.50;1.00
6662;DHT22;3367;48.714;8.994;2022-10-23T06:26:59;9.50;1.00
6662;DHT22;3367;48.714;8.994;2022-10-23T06:29:27;9.60;1.00
6662;DHT22;3367;48.714;8.994;2022-10-23T06:31:54;9.50;1.00
6662;DHT22;3367;48.714;8.994;2022-10-23T06:34:21;9.60;99.90
6662;DHT22;3367;48.714;8.994;2022-10-23T06:36:47;9.60;99.90
6662;DHT22;3367;48.714;8.994;2022-10-23T06:39:14;9.70;99.90
6662;DHT22;3367;48.714;8.994;2022-10-23T06:41:41;9.70;99.90
6662;DHT22;3367;48.714;8.994;2022-10-23T06:44:08;9.80;99.90
6662;DHT22;3367;48.714;8.994;2022-10-23T06:46:37;9.90;99.90
6662;DHT22;3367;48.714;8.994;2022-10-23T06:49:03;9.90;99.90
6662;DHT22;3367;48.714;8.994;2022-10-23T06:51:30;10.00;99.90
6662;DHT22;3367;48.714;8.994;2022-10-23T06:53:57;10.00;99.90
6662;DHT22;3367;48.714;8.994;2022-10-23T06:56:24;10.10;99.90
6662;DHT22;3367;48.714;8.994;2022-10-23T06:58:53;10.20;65.50
6662;DHT22;3367;48.714;8.994;2022-10-23T07:01:20;10.40;88.80
6662;DHT22;3367;48.714;8.994;2022-10-23T07:03:49;10.40;29.10
6662;DHT22;3367;48.714;8.994;2022-10-23T07:06:16;10.50;1.00
6662;DHT22;3367;48.714;8.994;2022-10-23T07:08:43;10.60;1.00
6662;DHT22;3367;48.714;8.994;2022-10-23T07:11:10;10.70;1.00
6662;DHT22;3367;48.714;8.994;2022-10-23T07:13:38;10.80;1.00
6662;DHT22;3367;48.714;8.994;2022-10-23T07:16:10;10.90;1.00
6662;DHT22;3367;48.714;8.994;2022-10-23T07:18:36;11.00;1.00
6662;DHT22;3367;48.714;8.994;2022-10-23T07:21:05;11.10;1.00
6662;DHT22;3367;48.714;8.994;2022-10-23T07:23:31;11.10;99.90
6662;DHT22;3367;48.714;8.994;2022-10-23T07:26:05;11.20;33.80
6662;DHT22;3367;48.714;8.994;2022-10-23T07:28:33;11.30;1.00
6662;DHT22;3367;48.714;8.994;2022-10-23T07:31:00;11.40;1.00
6662;DHT22;3367;48.714;8.994;2022-10-23T07:33:27;11.50;1.00
6662;DHT22;3367;48.714;8.994;2022-10-23T07:35:53;11.60;1.00
6662;DHT22;3367;48.714;8.994;2022-10-23T07:38:21;11.70;1.00
6662;DHT22;3367;48.714;8.994;2022-10-23T07:40:48;11.80;1.00
6662;DHT22;3367;48.714;8.994;2022-10-23T07:43:15;11.90;99.90
6662;DHT22;3367;48.714;8.994;2022-10-23T07:45:45;12.00;99.90
6662;DHT22;3367;48.714;8.994;2022-10-23T07:48:11;12.10;1.00
6662;DHT22;3367;48.714;8.994;2022-10-23T07:50:38;12.10;1.00
6662;DHT22;3367;48.714;8.994;2022-10-23T07:53:05;12.20;1.00
6662;DHT22;3367;48.714;8.994;2022-10-23T07:55:33;12.30;99.90
6662;DHT22;3367;48.714;8.994;2022-10-23T07:58:00;12.40;99.90
6662;DHT22;3367;48.714;8.994;2022-10-23T08:00:26;12.50;99.90
6662;DHT22;3367;48.714;8.994;2022-10-23T08:02:53;12.60;1.00
6662;DHT22;3367;48.714;8.994;2022-10-23T08:05:20;12.70;1.00
6662;DHT22;3367;48.714;8.994;2022-10-23T08:07:47;12.90;1.00
6662;DHT22;3367;48.714;8.994;2022-10-23T08:10:13;12.90;99.90
6662;DHT22;3367;48.714;8.994;2022-10-23T08:12:41;13.10;70.60
6662;DHT22;3367;48.714;8.994;2022-10-23T08:15:09;13.20;1.00
6662;DHT22;3367;48.714;8.994;2022-10-23T08:17:35;13.40;1.00
6662;DHT22;3367;48.714;8.994;2022-10-23T08:20:04;13.40;99.90
6662;DHT22;3367;48.714;8.994;2022-10-23T08:22:31;13.50;1.00
6662;DHT22;3367;48.714;8.994;2022-10-23T08:24:59;13.70;1.00
6662;DHT22;3367;48.714;8.994;2022-10-23T08:27:26;13.80;1.00
6662;DHT22;3367;48.714;8.994;2022-10-23T08:29:54;13.90;1.00
6662;DHT22;3367;48.714;8.994;2022-10-23T08:32:21;13.90;1.00
6662;DHT22;3367;48.714;8.994;2022-10-23T08:34:47;13.80;1.00
6662;DHT22;3367;48.714;8.994;2022-10-23T08:37:14;13.90;1.00
6662;DHT22;3367;48.714;8.994;2022-10-23T08:39:41;14.00;1.00
6662;DHT22;3367;48.714;8.994;2022-10-23T08:42:17;14.10;1.00
6662;DHT22;3367;48.714;8.994;2022-10-23T08:44:51;14.20;1.00
6662;DHT22;3367;48.714;8.994;2022-10-23T08:47:27;14.30;1.00
6662;DHT22;3367;48.714;8.994;2022-10-23T08:49:59;14.40;99.90
6662;DHT22;3367;48.714;8.994;2022-10-23T08:52:31;14.50;99.90
6662;DHT22;3367;48.714;8.994;2022-10-23T08:55:08;14.70;1.00
6662;DHT22;3367;48.714;8.994;2022-10-23T08:57:44;14.80;1.00
6662;DHT22;3367;48.714;8.994;2022-10-23T09:00:14;14.80;99.90
6662;DHT22;3367;48.714;8.994;2022-10-23T09:02:45;14.90;99.90
6662;DHT22;3367;48.714;8.994;2022-10-23T09:05:16;15.10;99.90
6662;DHT22;3367;48.714;8.994;2022-10-23T09:07:54;15.20;97.80
6662;DHT22;3367;48.714;8.994;2022-10-23T09:10:36;15.30;45.40
6662;DHT22;3367;48.714;8.994;2022-10-23T09:13:28;15.50;1.00
6662;DHT22;3367;48.714;8.994;2022-10-23T09:16:01;15.60;1.00
6662;DHT22;3367;48.714;8.994;2022-10-23T09:18:33;15.70;1.00
6662;DHT22;3367;48.714;8.994;2022-10-23T09:20:59;15.90;1.00
6662;DHT22;3367;48.714;8.994;2022-10-23T09:23:26;16.00;1.00
6662;DHT22;3367;48.714;8.994;2022-10-23T09:25:53;16.20;1.00
6662;DHT22;3367;48.714;8.994;2022-10-23T09:28:23;16.30;1.00
6662;DHT22;3367;48.714;8.994;2022-10-23T09:30:50;16.30;1.00
6662;DHT22;3367;48.714;8.994;2022-10-23T09:33:19;16.40;1.00
6662;DHT22;3367;48.714;8.994;2022-10-23T09:35:56;16.50;1.00
6662;DHT22;3367;48.714;8.994;2022-10-23T09:38:28;16.60;1.00
6662;DHT22;3367;48.714;8.994;2022-10-23T09:40:56;16.70;1.00
6662;DHT22;3367;48.714;8.994;2022-10-23T09:43:24;16.80;99.90
6662;DHT22;3367;48.714;8.994;2022-10-23T09:45:56;16.90;1.00
6662;DHT22;3367;48.714;8.994;2022-10-23T09:48:23;17.00;99.90
6662;DHT22;3367;48.714;8.994;2022-10-23T09:50:54;17.20;99.90
6662;DHT22;3367;48.714;8.994;2022-10-23T09:53:26;17.30;99.90
6662;DHT22;3367;48.714;8.994;2022-10-23T09:55:56;17.40;99.90
6662;DHT22;3367;48.714;8.994;2022-10-23T09:58:33;17.50;99.90
6662;DHT22;3367;48.714;8.994;2022-10-23T10:01:00;17.60;99.90
6662;DHT22;3367;48.714;8.994;2022-10-23T10:03:27;17.70;99.90
6662;DHT22;3367;48.714;8.994;2022-10-23T10:05:58;17.70;99.90
6662;DHT22;3367;48.714;8.994;2022-10-23T10:08:35;17.80;99.90
6662;DHT22;3367;48.714;8.994;2022-10-23T10:11:09;17.90;99.90
6662;DHT22;3367;48.714;8.994;2022-10-23T10:13:51;18.00;99.90
6662;DHT22;3367;48.714;8.994;2022-10-23T10:16:29;18.10;93.60
6662;DHT22;3367;48.714;8.994;2022-10-23T10:19:02;18.10;1.00
6662;DHT22;3367;48.714;8.994;2022-10-23T10:21:38;18.20;1.00
6662;DHT22;3367;48.714;8.994;2022-10-23T10:24:11;18.30;1.00
6662;DHT22;3367;48.714;8.994;2022-10-23T10:26:46;18.40;1.00
6662;DHT22;3367;48.714;8.994;2022-10-23T10:29:22;18.60;1.00
6662;DHT22;3367;48.714;8.994;2022-10-23T10:32:02;18.80;1.00
6662;DHT22;3367;48.714;8.994;2022-10-23T10:34:37;18.90;1.00
6662;DHT22;3367;48.714;8.994;2022-10-23T10:37:17;19.00;1.00
6662;DHT22;3367;48.714;8.994;2022-10-23T10:39:51;19.20;1.00
6662;DHT22;3367;48.714;8.994;2022-10-23T10:42:40;19.30;1.00
6662;DHT22;3367;48.714;8.994;2022-10-23T10:45:23;19.20;1.00
6662;DHT22;3367;48.714;8.994;2022-10-23T10:48:02;19.00;1.00
6662;DHT22;3367;48.714;8.994;2022-10-23T10:50:41;18.90;1.00
6662;DHT22;3367;48.714;8.994;2022-10-23T10:53:19;18.90;1.00
6662;DHT22;3367;48.714;8.994;2022-10-23T10:55:49;19.00;1.00
6662;DHT22;3367;48.714;8.994;2022-10-23T10:58:37;19.00;1.00
6662;DHT22;3367;48.714;8.994;2022-10-23T11:01:12;19.10;1.00
6662;DHT22;3367;48.714;8.994;2022-10-23T11:03:44;19.20;1.00
6662;DHT22;3367;48.714;8.994;2022-10-23T11:06:15;19.20;1.00
6662;DHT22;3367;48.714;8.994;2022-10-23T11:08:45;19.40;1.00
6662;DHT22;3367;48.714;8.994;2022-10-23T11:11:16;19.40;1.00
6662;DHT22;3367;48.714;8.994;2022-10-23T11:13:44;19.50;1.00
6662;DHT22;3367;48.714;8.994;2022-10-23T11:16:13;19.60;1.00
6662;DHT22;3367;48.714;8.994;2022-10-23T11:18:43;19.50;1.00
6662;DHT22;3367;48.714;8.994;2022-10-23T11:21:22;19.50;1.00
6662;DHT22;3367;48.714;8.994;2022-10-23T11:24:25;19.50;1.00
6662;DHT22;3367;48.714;8.994;2022-10-23T11:27:17;19.40;1.00
6662;DHT22;3367;48.714;8.994;2022-10-23T11:33:34;19.40;1.00
6662;DHT22;3367;48.714;8.994;2022-10-23T11:36:12;19.50;1.00
6662;DHT22;3367;48.714;8.994;2022-10-23T11:38:43;19.50;1.00
6662;DHT22;3367;48.714;8.994;2022-10-23T11:41:19;19.70;1.00
6662;DHT22;3367;48.714;8.994;2022-10-23T11:43:49;19.70;1.00
6662;DHT22;3367;48.714;8.994;2022-10-23T11:46:32;19.90;1.00
6662;DHT22;3367;48.714;8.994;2022-10-23T11:49:02;20.10;1.00
6662;DHT22;3367;48.714;8.994;2022-10-23T11:51:31;20.10;1.00
6662;DHT22;3367;48.714;8.994;2022-10-23T11:54:18;20.20;1.00
6662;DHT22;3367;48.714;8.994;2022-10-23T11:57:09;20.30;1.00
6662;DHT22;3367;48.714;8.994;2022-10-23T11:59:49;20.20;1.00
6662;DHT22;3367;48.714;8.994;2022-10-23T12:02:38;20.30;1.00
6662;DHT22;3367;48.714;8.994;2022-10-23T12:07:55;20.10;1.00
6662;DHT22;3367;48.714;8.994;2022-10-23T12:10:27;20.30;1.00
6662;DHT22;3367;48.714;8.994;2022-10-23T12:12:58;20.30;1.00
6662;DHT22;3367;48.714;8.994;2022-10-23T12:15:26;20.30;1.00
6662;DHT22;3367;48.714;8.994;2022-10-23T12:17:54;20.40;1.00
6662;DHT22;3367;48.714;8.994;2022-10-23T12:20:36;20.30;1.00
6662;DHT22;3367;48.714;8.994;2022-10-23T12:23:36;20.20;1.00
6662;DHT22;3367;48.714;8.994;2022-10-23T12:29:33;20.30;1.00
6662;DHT22;3367;48.714;8.994;2022-10-23T12:32:16;20.30;1.00
6662;DHT22;3367;48.714;8.994;2022-10-23T12:34:50;20.40;1.00
6662;DHT22;3367;48.714;8.994;2022-10-23T12:40:16;20.50;1.00
6662;DHT22;3367;48.714;8.994;2022-10-23T12:42:49;20.60;1.00
6662;DHT22;3367;48.714;8.994;2022-10-23T12:45:19;20.70;1.00
6662;DHT22;3367;48.714;8.994;2022-10-23T12:47:49;20.80;1.00
6662;DHT22;3367;48.714;8.994;2022-10-23T12:50:19;21.00;1.00
6662;DHT22;3367;48.714;8.994;2022-10-23T12:52:54;21.00;1.00
6662;DHT22;3367;48.714;8.994;2022-10-23T12:55:21;21.10;1.00
6662;DHT22;3367;48.714;8.994;2022-10-23T12:57:49;21.20;1.00
6662;DHT22;3367;48.714;8.994;2022-10-23T13:00:20;21.10;1.00
6662;DHT22;3367;48.714;8.994;2022-10-23T13:02:57;20.90;1.00
6662;DHT22;3367;48.714;8.994;2022-10-23T13:05:24;20.70;1.00
6662;DHT22;3367;48.714;8.994;2022-10-23T13:07:53;20.60;1.00
6662;DHT22;3367;48.714;8.994;2022-10-23T13:10:21;20.60;1.00
6662;DHT22;3367;48.714;8.994;2022-10-23T13:12:53;20.60;1.00
6662;DHT22;3367;48.714;8.994;2022-10-23T13:15:23;20.60;1.00
6662;DHT22;3367;48.714;8.994;2022-10-23T13:18:09;20.70;1.00
6662;DHT22;3367;48.714;8.994;2022-10-23T13:20:41;20.80;1.00
6662;DHT22;3367;48.714;8.994;2022-10-23T13:23:15;20.80;1.00
6662;DHT22;3367;48.714;8.994;2022-10-23T13:25:52;20.70;1.00
6662;DHT22;3367;48.714;8.994;2022-10-23T13:28:22;20.60;1.00
6662;DHT22;3367;48.714;8.994;2022-10-23T13:31:28;20.60;1.00
6662;DHT22;3367;48.714;8.994;2022-10-23T13:34:17;20.70;1.00
6662;DHT22;3367;48.714;8.994;2022-10-23T13:36:58;20.80;1.00
6662;DHT22;3367;48.714;8.994;2022-10-23T13:39:28;20.90;1.00
6662;DHT22;3367;48.714;8.994;2022-10-23T13:41:57;20.90;1.00
6662;DHT22;3367;48.714;8.994;2022-10-23T13:44:28;20.90;1.00
6662;DHT22;3367;48.714;8.994;2022-10-23T13:46:56;20.80;1.00
6662;DHT22;3367;48.714;8.994;2022-10-23T13:49:23;20.70;1.00
6662;DHT22;3367;48.714;8.994;2022-10-23T13:51:52;20.70;1.00
6662;DHT22;3367;48.714;8.994;2022-10-23T13:54:21;20.80;1.00
6662;DHT22;3367;48.714;8.994;2022-10-23T13:56:48;20.60;1.00
6662;DHT22;3367;48.714;8.994;2022-10-23T13:59:16;20.60;1.00
6662;DHT22;3367;48.714;8.994;2022-10-23T14:01:44;20.50;1.00
6662;DHT22;3367;48.714;8.994;2022-10-23T14:04:14;20.50;1.00
6662;DHT22;3367;48.714;8.994;2022-10-23T14:06:41;20.40;1.00
6662;DHT22;3367;48.714;8.994;2022-10-23T14:09:12;20.30;1.00
6662;DHT22;3367;48.714;8.994;2022-10-23T14:11:39;20.20;1.00
6662;DHT22;3367;48.714;8.994;2022-10-23T14:14:07;20.10;1.00
6662;DHT22;3367;48.714;8.994;2022-10-23T14:16:34;20.00;1.00
6662;DHT22;3367;48.714;8.994;2022-10-23T14:19:01;20.00;1.00
6662;DHT22;3367;48.714;8.994;2022-10-23T14:21:29;19.90;1.00
6662;DHT22;3367;48.714;8.994;2022-10-23T14:23:56;19.80;1.00
6662;DHT22;3367;48.714;8.994;2022-10-23T14:26:25;19.80;1.00
6662;DHT22;3367;48.714;8.994;2022-10-23T14:28:55;19.80;1.00
6662;DHT22;3367;48.714;8.994;2022-10-23T14:31:22;19.70;1.00
6662;DHT22;3367;48.714;8.994;2022-10-23T14:33:52;19.70;1.00
6662;DHT22;3367;48.714;8.994;2022-10-23T14:36:19;19.70;1.00
6662;DHT22;3367;48.714;8.994;2022-10-23T14:38:48;19.80;1.00
6662;DHT22;3367;48.714;8.994;2022-10-23T14:41:16;19.70;1.00
6662;DHT22;3367;48.714;8.994;2022-10-23T14:43:43;19.70;1.00
6662;DHT22;3367;48.714;8.994;2022-10-23T14:46:12;19.60;1.00
6662;DHT22;3367;48.714;8.994;2022-10-23T14:48:40;19.50;1.00
6662;DHT22;3367;48.714;8.994;2022-10-23T14:51:15;19.60;1.00
6662;DHT22;3367;48.714;8.994;2022-10-23T14:53:42;19.50;1.00
6662;DHT22;3367;48.714;8.994;2022-10-23T14:56:10;19.50;1.00
6662;DHT22;3367;48.714;8.994;2022-10-23T14:58:37;19.50;1.00
6662;DHT22;3367;48.714;8.994;2022-10-23T15:01:05;19.40;1.00
6662;DHT22;3367;48.714;8.994;2022-10-23T15:03:31;19.50;1.00
6662;DHT22;3367;48.714;8.994;2022-10-23T15:05:58;19.50;1.00
6662;DHT22;3367;48.714;8.994;2022-10-23T15:08:25;19.60;1.00
6662;DHT22;3367;48.714;8.994;2022-10-23T15:10:52;19.60;1.00
6662;DHT22;3367;48.714;8.994;2022-10-23T15:13:21;19.60;1.00
6662;DHT22;3367;48.714;8.994;2022-10-23T15:15:48;19.50;1.00
6662;DHT22;3367;48.714;8.994;2022-10-23T15:18:14;19.50;1.00
6662;DHT22;3367;48.714;8.994;2022-10-23T15:20:50;19.50;1.00
6662;DHT22;3367;48.714;8.994;2022-10-23T15:23:17;19.50;1.00
6662;DHT22;3367;48.714;8.994;2022-10-23T15:25:44;19.60;1.00
6662;DHT22;3367;48.714;8.994;2022-10-23T15:28:21;19.60;1.00
6662;DHT22;3367;48.714;8.994;2022-10-23T15:30:48;19.50;1.00
6662;DHT22;3367;48.714;8.994;2022-10-23T15:33:14;19.50;1.00
6662;DHT22;3367;48.714;8.994;2022-10-23T15:35:41;19.50;1.00
6662;DHT22;3367;48.714;8.994;2022-10-23T15:38:08;19.40;1.00
6662;DHT22;3367;48.714;8.994;2022-10-23T15:40:35;19.30;1.00
6662;DHT22;3367;48.714;8.994;2022-10-23T15:43:02;19.20;1.00
6662;DHT22;3367;48.714;8.994;2022-10-23T15:45:31;19.10;5.30
6662;DHT22;3367;48.714;8.994;2022-10-23T15:47:59;19.00;37.10
6662;DHT22;3367;48.714;8.994;2022-10-23T15:50:26;18.90;65.60
6662;DHT22;3367;48.714;8.994;2022-10-23T15:52:53;18.80;76.00
6662;DHT22;3367;48.714;8.994;2022-10-23T15:55:20;18.70;66.90
6662;DHT22;3367;48.714;8.994;2022-10-23T15:57:47;18.70;47.60
6662;DHT22;3367;48.714;8.994;2022-10-23T16:00:14;18.70;32.00
6662;DHT22;3367;48.714;8.994;2022-10-23T16:02:43;18.60;34.10
6662;DHT22;3367;48.714;8.994;2022-10-23T16:05:10;18.50;52.60
6662;DHT22;3367;48.714;8.994;2022-10-23T16:07:37;18.40;99.90
6662;DHT22;3367;48.714;8.994;2022-10-23T16:10:05;18.30;99.90
6662;DHT22;3367;48.714;8.994;2022-10-23T16:12:32;18.10;99.90
6662;DHT22;3367;48.714;8.994;2022-10-23T16:14:59;18.00;99.90
6662;DHT22;3367;48.714;8.994;2022-10-23T16:17:26;17.90;99.90
6662;DHT22;3367;48.714;8.994;2022-10-23T16:19:54;17.80;1.00
6662;DHT22;3367;48.714;8.994;2022-10-23T16:22:21;17.70;1.00
6662;DHT22;3367;48.714;8.994;2022-10-23T16:24:48;17.60;1.00
6662;DHT22;3367;48.714;8.994;2022-10-23T16:27:15;17.50;99.90
6662;DHT22;3367;48.714;8.994;2022-10-23T16:29:45;17.40;1.00
6662;DHT22;3367;48.714;8.994;2022-10-23T16:32:13;17.50;99.90
6662;DHT22;3367;48.714;8.994;2022-10-23T16:34:40;17.60;99.90
6662;DHT22;3367;48.714;8.994;2022-10-23T16:37:09;17.60;99.90
6662;DHT22;3367;48.714;8.994;2022-10-23T16:39:36;17.60;99.90
6662;DHT22;3367;48.714;8.994;2022-10-23T16:42:04;17.60;99.90
6662;DHT22;3367;48.714;8.994;2022-10-23T16:44:31;17.70;99.90
6662;DHT22;3367;48.714;8.994;2022-10-23T16:46:57;17.80;99.90
6662;DHT22;3367;48.714;8.994;2022-10-23T16:49:24;17.80;99.90
6662;DHT22;3367;48.714;8.994;2022-10-23T16:51:54;17.80;99.90
6662;DHT22;3367;48.714;8.994;2022-10-23T16:54:22;17.70;99.90